createdAt,value
2019-02-27T00:01:21.284Z,9.72
2019-02-27T00:06:29.875Z,9.72
2019-02-27T00:11:45.973Z,9.66
2019-02-27T00:16:55.283Z,9.58
2019-02-27T00:22:03.783Z,9.43
2019-02-27T00:27:14.712Z,9.35
2019-02-27T00:32:21.379Z,9.20
2019-02-27T00:37:30.398Z,9.12
2019-02-27T00:42:38.731Z,9.04
2019-02-27T00:47:46.780Z,8.98
2019-02-27T00:53:02.138Z,8.87
2019-02-27T00:58:15.845Z,8.78
2019-02-27T01:03:25.940Z,8.68
2019-02-27T01:08:32.936Z,8.56
2019-02-27T01:13:41.187Z,8.47
2019-02-27T01:18:51.189Z,8.41
2019-02-27T01:24:01.320Z,8.34
2019-02-27T01:29:17.979Z,8.22
2019-02-27T01:34:28.746Z,8.18
2019-02-27T01:39:38.048Z,8.07
2019-02-27T01:44:49.724Z,7.98
2019-02-27T01:50:02.011Z,7.98
2019-02-27T01:55:12.163Z,7.85
2019-02-27T02:00:23.290Z,7.80
2019-02-27T02:05:34.917Z,7.80
2019-02-27T02:10:43.474Z,7.69
2019-02-27T02:16:19.852Z,7.60
2019-02-27T02:21:56.354Z,7.56
2019-02-27T02:27:23.171Z,7.51
2019-02-27T02:33:02.716Z,7.32
2019-02-27T02:39:00.295Z,7.32
2019-02-27T02:44:42.598Z,7.29
2019-02-27T02:50:18.482Z,7.19
2019-02-27T02:55:39.054Z,7.15
2019-02-27T03:01:15.181Z,7.09
2019-02-27T03:06:58.796Z,7.02
2019-02-27T03:12:41.747Z,6.95
2019-02-27T03:18:37.189Z,6.86
2019-02-27T03:24:36.308Z,6.68
2019-02-27T03:29:55.718Z,6.71
2019-02-27T03:35:42.837Z,6.70
2019-02-27T03:41:29.764Z,6.64
2019-02-27T03:47:08.009Z,6.56
2019-02-27T03:52:36.337Z,6.55
2019-02-27T03:58:07.442Z,6.45
2019-02-27T04:03:31.920Z,6.38
2019-02-27T04:08:58.469Z,6.33
2019-02-27T04:14:22.536Z,6.25
2019-02-27T04:19:40.373Z,6.20
2019-02-27T04:24:50.155Z,6.14
2019-02-27T04:30:00.181Z,6.06
2019-02-27T04:35:11.403Z,6.00
2019-02-27T04:40:23.090Z,5.93
2019-02-27T04:45:34.859Z,5.92
2019-02-27T04:50:44.182Z,5.85
2019-02-27T04:55:53.765Z,5.75
2019-02-27T05:01:04.549Z,5.73
2019-02-27T05:06:16.229Z,5.73
2019-02-27T05:11:23.646Z,5.68
2019-02-27T05:16:34.483Z,5.55
2019-02-27T05:21:44.615Z,5.55
2019-02-27T05:26:53.573Z,5.48
2019-02-27T05:32:05.124Z,5.43
2019-02-27T05:37:15.215Z,5.42
2019-02-27T05:42:27.843Z,5.37
2019-02-27T05:47:38.733Z,5.31
2019-02-27T05:52:48.783Z,5.28
2019-02-27T05:57:55.080Z,5.24
2019-02-27T06:03:05.831Z,5.18
2019-02-27T06:08:18.376Z,5.12
2019-02-27T06:13:28.327Z,5.09
2019-02-27T06:18:35.193Z,5.07
2019-02-27T06:23:46.855Z,5.01
2019-02-27T06:28:56.062Z,4.90
2019-02-27T06:34:15.292Z,4.90
2019-02-27T06:39:26.055Z,4.93
2019-02-27T06:44:39.318Z,4.92
2019-02-27T06:49:49.067Z,4.86
2019-02-27T06:54:56.995Z,4.84
2019-02-27T07:00:11.697Z,4.89
2019-02-27T07:05:25.233Z,4.87
2019-02-27T07:10:36.170Z,5.02
2019-02-27T07:15:48.273Z,5.29
2019-02-27T07:20:58.312Z,5.37
2019-02-27T07:26:07.492Z,5.46
2019-02-27T07:31:23.421Z,5.57
2019-02-27T07:36:35.959Z,5.68
2019-02-27T07:41:46.235Z,5.80
2019-02-27T07:46:58.792Z,5.94
2019-02-27T07:52:06.613Z,6.05
2019-02-27T07:57:18.346Z,6.20
2019-02-27T08:02:33.721Z,6.34
2019-02-27T08:07:40.594Z,6.47
2019-02-27T08:12:56.748Z,6.75
2019-02-27T08:18:10.510Z,7.04
2019-02-27T08:23:27.655Z,7.30
2019-02-27T08:28:35.427Z,7.62
2019-02-27T08:33:46.180Z,7.85
2019-02-27T08:38:57.068Z,8.16
2019-02-27T08:44:12.349Z,8.37
2019-02-27T08:49:24.968Z,8.60
2019-02-27T08:54:35.077Z,9.02
2019-02-27T08:59:43.520Z,9.41
2019-02-27T09:04:54.179Z,9.71
2019-02-27T09:10:05.480Z,9.96
2019-02-27T09:15:14.917Z,10.17
2019-02-27T09:20:26.638Z,10.42
2019-02-27T09:25:34.043Z,10.80
2019-02-27T09:30:43.947Z,11.07
2019-02-27T09:35:55.308Z,11.22
2019-02-27T09:41:05.070Z,11.35
2019-02-27T09:46:19.528Z,11.60
2019-02-27T09:51:30.527Z,11.80
2019-02-27T09:56:43.076Z,12.11
2019-02-27T10:01:52.915Z,13.55
2019-02-27T10:07:03.845Z,16.60
2019-02-27T10:12:10.737Z,18.21
2019-02-27T10:17:20.855Z,19.84
2019-02-27T10:22:33.485Z,22.03
2019-02-27T10:27:47.721Z,23.81
2019-02-27T10:32:57.610Z,25.19
2019-02-27T10:38:07.977Z,25.48
2019-02-27T10:43:22.395Z,26.42
2019-02-27T10:48:39.598Z,26.21
2019-02-27T10:53:53.231Z,26.02
2019-02-27T10:59:01.481Z,26.03
2019-02-27T11:04:10.456Z,27.02
2019-02-27T11:09:27.728Z,26.85
2019-02-27T11:14:39.516Z,26.63
2019-02-27T11:19:47.205Z,27.35
2019-02-27T11:24:56.134Z,27.74
2019-02-27T11:30:08.718Z,27.79
2019-02-27T11:35:22.128Z,28.67
2019-02-27T11:40:32.650Z,28.48
2019-02-27T11:45:46.218Z,29.85
2019-02-27T11:50:56.004Z,29.68
2019-02-27T11:56:07.788Z,31.01
2019-02-27T12:01:15.915Z,30.17
2019-02-27T12:06:29.924Z,30.32
2019-02-27T12:11:39.135Z,29.14
2019-02-27T12:16:51.770Z,30.77
2019-02-27T12:22:04.049Z,30.22
2019-02-27T12:27:24.466Z,30.18
2019-02-27T12:32:25.980Z,32.92
2019-02-27T12:37:34.762Z,31.63
2019-02-27T12:42:46.941Z,31.08
2019-02-27T12:48:02.181Z,31.68
2019-02-27T12:53:11.081Z,32.87
2019-02-27T12:58:24.385Z,33.46
2019-02-27T13:03:42.149Z,33.41
2019-02-27T13:08:55.878Z,34.13
2019-02-27T13:14:05.032Z,33.70
2019-02-27T13:19:18.637Z,34.13
2019-02-27T13:24:33.009Z,34.46
2019-02-27T13:29:44.587Z,34.53
2019-02-27T13:34:54.696Z,35.00
2019-02-27T13:40:10.871Z,36.74
2019-02-27T13:50:53.319Z,35.58
2019-02-27T13:56:01.402Z,35.46
2019-02-27T14:01:12.167Z,36.60
2019-02-27T14:06:23.437Z,34.54
2019-02-27T14:11:37.956Z,33.57
2019-02-27T14:16:49.271Z,32.89
2019-02-27T14:22:00.325Z,33.54
2019-02-27T14:27:14.592Z,33.69
2019-02-27T14:32:25.126Z,35.64
2019-02-27T14:37:40.456Z,36.60
2019-02-27T14:42:55.218Z,36.06
2019-02-27T14:48:05.735Z,35.98
2019-02-27T14:53:19.794Z,33.68
2019-02-27T14:58:27.692Z,32.61
2019-02-27T15:03:36.091Z,28.87
2019-02-27T15:08:55.238Z,27.10
2019-02-27T15:13:59.675Z,25.37
2019-02-27T15:19:06.332Z,25.55
2019-02-27T15:24:14.584Z,25.26
2019-02-27T15:29:26.575Z,24.68
2019-02-27T15:34:33.484Z,24.62
2019-02-27T15:39:47.847Z,24.66
2019-02-27T15:44:57.909Z,24.27
2019-02-27T15:50:26.948Z,24.37
2019-02-27T15:55:38.647Z,24.41
2019-02-27T16:00:53.447Z,24.15
2019-02-27T16:06:05.204Z,23.87
2019-02-27T16:11:10.300Z,23.77
2019-02-27T16:16:23.920Z,23.61
2019-02-27T16:21:37.486Z,23.37
2019-02-27T16:26:45.301Z,22.92
2019-02-27T16:31:56.325Z,22.45
2019-02-27T16:37:05.311Z,22.12
2019-02-27T16:42:13.411Z,22.17
2019-02-27T16:47:25.310Z,21.93
2019-02-27T16:52:39.190Z,21.76
2019-02-27T16:57:50.462Z,21.45
2019-02-27T17:02:58.595Z,21.07
2019-02-27T17:08:05.928Z,20.95
2019-02-27T17:13:18.340Z,20.69
2019-02-27T17:19:33.126Z,20.43
2019-02-27T17:24:48.486Z,20.08
2019-02-27T17:30:00.071Z,19.73
2019-02-27T17:35:06.952Z,19.42
2019-02-27T17:40:17.902Z,19.17
2019-02-27T17:45:25.724Z,18.78
2019-02-27T17:50:33.963Z,18.59
2019-02-27T17:55:42.599Z,18.54
2019-02-27T18:00:55.907Z,18.37
2019-02-27T18:06:06.786Z,18.08
2019-02-27T18:11:21.414Z,17.90
2019-02-27T18:16:31.539Z,17.43
2019-02-27T18:21:42.801Z,17.19
2019-02-27T18:26:58.149Z,16.90
2019-02-27T18:32:07.753Z,16.47
2019-02-27T18:37:22.278Z,16.35
2019-02-27T18:42:35.783Z,16.21
2019-02-27T18:47:47.466Z,16.13
2019-02-27T18:53:00.266Z,16.13
2019-02-27T18:58:14.765Z,15.98
2019-02-27T19:03:26.378Z,15.85
2019-02-27T19:08:35.848Z,15.63
2019-02-27T19:13:48.578Z,15.53
2019-02-27T19:19:00.410Z,15.53
2019-02-27T19:24:12.382Z,15.36
2019-02-27T19:29:26.615Z,15.10
2019-02-27T19:34:44.737Z,14.97
2019-02-27T19:39:53.363Z,14.84
2019-02-27T19:45:04.135Z,14.78
2019-02-27T19:50:11.237Z,14.63
2019-02-27T19:55:26.477Z,14.38
2019-02-27T20:00:34.198Z,14.29
2019-02-27T20:05:40.732Z,14.16
2019-02-27T20:10:49.858Z,14.10
2019-02-27T20:15:59.001Z,13.95
2019-02-27T20:21:10.511Z,13.77
2019-02-27T20:26:24.738Z,13.60
2019-02-27T20:31:32.855Z,13.42
2019-02-27T20:36:53.618Z,13.21
2019-02-27T20:42:02.711Z,13.05
2019-02-27T20:47:18.099Z,12.88
2019-02-27T20:52:30.056Z,12.77
2019-02-27T20:57:42.933Z,12.66
2019-02-27T21:02:53.504Z,12.41
2019-02-27T21:08:08.900Z,12.32
2019-02-27T21:13:18.958Z,12.21
2019-02-27T21:18:33.387Z,12.11
2019-02-27T21:23:43.168Z,12.01
2019-02-27T21:28:58.542Z,11.93
2019-02-27T21:34:02.256Z,11.86
2019-02-27T21:39:16.147Z,11.70
2019-02-27T21:44:29.223Z,11.59
2019-02-27T21:49:36.788Z,11.53
2019-02-27T21:54:48.688Z,11.44
2019-02-27T22:00:00.502Z,11.41
2019-02-27T22:05:18.406Z,11.36
2019-02-27T22:10:20.598Z,11.20
2019-02-27T22:15:31.416Z,11.14
2019-02-27T22:20:39.527Z,11.04
2019-02-27T22:25:55.471Z,10.84
2019-02-27T22:31:07.732Z,10.75
2019-02-27T22:36:16.790Z,10.74
2019-02-27T22:41:26.313Z,10.73
2019-02-27T22:46:36.397Z,10.68
2019-02-27T22:51:48.311Z,10.56
2019-02-27T22:56:55.850Z,10.50
2019-02-27T23:02:07.618Z,10.31
2019-02-27T23:07:20.512Z,10.24
2019-02-27T23:12:28.968Z,10.23
2019-02-27T23:17:38.283Z,10.21
2019-02-27T23:22:50.915Z,10.07
2019-02-27T23:28:02.019Z,9.96
2019-02-27T23:33:10.718Z,9.84
2019-02-27T23:38:21.774Z,9.74
2019-02-27T23:43:35.102Z,9.64
2019-02-27T23:48:42.964Z,9.62
2019-02-27T23:53:54.707Z,9.57
2019-02-27T23:59:02.573Z,9.50
